Lovington, Illinois
Current Conditions -  °F | °C
As of 10:54 AM on Sunday 21 Dec 2014 (Local Time) from KDEC Reporting Station
Haze Haze  
Wind Chill: 27°   Ceiling: 2400
Heat Index: 35°   Visibility: 5mi
Dew Point: 29°   Wind: 10mph
Humidity: 78%   Direction: 160°SSE
Pressure: 30.21"   Gusts: NA
Location:  39.72°N, 88.63°W
Report Text: KDEC 211654Z 16009KT 5SM HZ OVC024 02/M02 A3021 RMK AO2 SLP236 T00171017
Loading
Personal Weather Stations






























Interactive Weather Map New forecast layout! Learn more

10-Day Weather Forecast

Advertisements
Track Severe Weather on mobile